Terminal Aerodrome Forecast
Issued by NWS Columbia, SC

Home | Current Version | Previous Version | Text Only | Print | Product List | Glossary On
Versions: 1 2 3 4 5 6 7 8 9 10 11 12 13 14 15 16 17 18 19 20 21 22 23 24 25 26 27 28 29 30 31 32 33 34
000
FTUS42 KCAE 100500
TAFCAE
TAF
KCAE 100524Z 1006/1106 VRB03KT P6SM BKN100
     FM100900 VRB03KT 4SM BR HZ SCT100
     FM101300 23005KT P6SM SCT035
     FM102000 24008KT P6SM VCTS BKN050CB
     FM110100 VRB05KT P6SM BKN100=

USA.gov is the U.S. government's official web portal to all federal, state and local government web resources and services.